M I D A S
Marine Information and Data Acquisition System
Tripno 2304 of the Zeeleeuw from 2012-02-21 07:21:21 to 2012-02-21 16:34:13
Back to CruiseResearch ActivitiesStationsMapUnderway DataData graphs

EquipmentUnitsComment
TimeDGPSUTC
LatitudeDGPSDM.mWGS84
LongitudeDGPSDM.mWGS84
TemperatureSBE03/SBE38deg celciusITS90
ConductivitySBE21S/mITS90
SalinitySBE21 Practical Salinity Units
ChlorophylAChelsea fluorimeterg/lCalibrated in Aceton
Missing or incorrect values are displayed as -999
Sea surface data collected by the RV Zeeleeuw from 2012-02-21 07:05:18 to 2012-02-21 16:35:23
Time Latitude Longitude Temperature Conductivity Salinity ChlorophylA
2012-02-21 07:06:22 51°13.637 2°56.016 9.9121 0.044561 0.243065 -1.326982
2012-02-21 07:07:22 51°13.637 2°56.017 9.9169 0.044561 0.243056 -1.326982
2012-02-21 07:08:23 51°13.636 2°56.018 9.931 0.044561 0.243056 -1.326982
2012-02-21 07:09:23 51°13.636 2°56.018 9.9281 0.044561 0.243056 -1.326982
2012-02-21 07:10:23 51°13.636 2°56.019 9.9338 0.044561 0.243056 -1.326982
2012-02-21 07:11:22 51°13.634 2°56.019 9.9345 0.044561 0.243061 -1.326982
2012-02-21 07:12:21 51°13.635 2°56.019 9.9372 0.044561 0.243069 -1.326982
2012-02-21 07:13:23 51°13.638 2°56.017 9.9496 0.044561 0.243078 -1.326982
2012-02-21 07:14:23 51°13.637 2°56.018 9.9543 0.044561 0.243086 -1.326982
2012-02-21 07:15:22 51°13.636 2°56.018 9.9623 0.044561 0.243099 -1.326982
2012-02-21 07:16:22 51°13.637 2°56.018 9.9548 0.044561 0.243108 -1.326982
2012-02-21 07:17:23 51°13.636 2°56.018 9.9601 0.044561 0.243116 -1.326982
2012-02-21 07:18:23 51°13.635 2°56.017 9.9665 0.044561 0.243129 -1.326982
2012-02-21 07:19:23 51°13.634 2°56.018 9.9825 0.044561 0.243142 -1.326982
2012-02-21 07:20:22 51°13.636 2°56.017 9.988 0.044561 0.24315 -1.326982
2012-02-21 07:21:23 51°13.636 2°56.018 10.0018 0.044561 0.243176 -1.326982
2012-02-21 07:22:22 51°13.636 2°56.018 10.0018 0.044561 0.243184 -1.326982
2012-02-21 07:23:22 51°13.636 2°56.018 10.0179 0.044664 0.243774 -1.326982
2012-02-21 07:24:22 51°13.634 2°56.017 9.9023 0.044766 0.244373 -1.326982
2012-02-21 07:25:22 51°13.652 2°55.937 10.0138 0.063582 0.350331 -1.326982
2012-02-21 07:26:22 51°13.689 2°55.811 10.067 0.063582 0.35035 -1.326982
2012-02-21 07:27:22 51°13.745 2°55.712 10.0581 0.063582 0.350381 -1.326982
2012-02-21 07:28:22 51°13.826 2°55.64 10.0105 0.063582 0.350406 -1.326982
2012-02-21 07:29:22 51°13.904 2°55.607 10.0971 0.063684 0.351022 -1.326982
2012-02-21 07:30:22 51°13.963 2°55.633 10.0786 0.063684 0.351059 -1.326982
2012-02-21 07:31:22 51°13.983 2°55.646 10.0829 0.063684 0.351078 -1.326982
2012-02-21 07:32:22 51°14.023 2°55.554 9.8398 0.063684 0.351009 -1.326982
2012-02-21 07:33:22 51°14.145 2°55.413 9.6393 0.063787 0.351732 -1.326982
2012-02-21 07:34:22 51°14.294 2°55.273 9.7706 0.063787 0.351795 -1.326982
2012-02-21 07:35:22 51°14.451 2°55.121 9.8677 0.063787 0.351833 -1.326982
2012-02-21 07:36:20 51°14.598 2°54.93 9.7923 0.06389 0.352361 -1.326982
2012-02-21 07:37:19 51°14.76 2°54.741 9.7718 0.06389 0.352506 -1.326982
2012-02-21 07:38:22 51°14.938 2°54.553 9.6477 0.063993 0.353122 -1.326982
2012-02-21 07:39:19 51°15.1 2°54.393 9.6034 0.063993 0.353154 -1.326982
2012-02-21 07:40:19 51°15.273 2°54.245 9.5461 0.063993 0.353281 -1.326982
2012-02-21 07:41:19 51°15.453 2°54.138 9.3888 0.064096 0.35391 -1.326982
2012-02-21 07:42:19 51°15.64 2°54.149 9.38 0.064198 0.354559 -1.326982
2012-02-21 07:43:19 51°15.819 2°54.231 5.434 0.430866 2.612311 -1.232679
2012-02-21 07:44:19 51°16.002 2°54.294 3.1329 2.996489 31.075777 -0.666862
2012-02-21 07:45:19 51°16.136 2°54.313 2.836 2.825365 30.442975 -0.258217
2012-02-21 07:46:19 51°16.223 2°54.319 2.7223 2.79218 30.284702 -0.069611
2012-02-21 07:47:19 51°16.26 2°54.328 2.6892 2.781533 30.269198 0.181863
2012-02-21 07:48:19 51°16.263 2°54.321 2.6469 2.775641 30.260227 0.433337
2012-02-21 07:49:19 51°16.266 2°54.311 2.6282 2.769542 30.231883 0.653377
2012-02-21 07:50:19 51°16.267 2°54.298 2.6131 2.742872 29.935479 0.464771
2012-02-21 07:51:19 51°16.265 2°54.285 2.5951 2.738117 29.89688 0.779114
2012-02-21 07:52:19 51°16.263 2°54.274 2.5871 2.726229 29.772468 0.276166
2012-02-21 07:53:19 51°16.26 2°54.264 2.5833 2.71641 29.663632 0.433337
2012-02-21 07:54:19 51°16.276 2°54.223 2.5784 2.677339 29.206177 0.621943
2012-02-21 07:55:19 51°16.348 2°54.054 2.5658 2.662249 29.032338 0.370468
2012-02-21 07:56:19 51°16.469 2°53.83 2.5609 2.791356 30.592986 0.370468
2012-02-21 07:57:19 51°16.595 2°53.569 2.5497 2.789495 30.593349 0.370468
2012-02-21 07:58:19 51°16.734 2°53.328 2.5471 2.789806 30.597097 0.401903
2012-02-21 07:59:19 51°16.86 2°53.073 2.5232 2.789909 30.615501 0.779114
2012-02-21 08:00:19 51°16.983 2°52.824 2.5438 2.789702 30.62063 0.873417
2012-02-21 08:01:19 51°17.129 2°52.609 2.5259 2.79115 30.635275 1.030588
2012-02-21 08:02:19 51°17.28 2°52.401 2.5198 2.789703 30.629219 1.344931
2012-02-21 08:03:19 51°17.427 2°52.184 2.5197 2.791357 30.655921 1.156325
2012-02-21 08:04:19 51°17.576 2°51.972 2.5259 2.790013 30.63679 1.062022
2012-02-21 08:05:19 51°17.725 2°51.769 2.534 2.791563 30.649826 1.407799
2012-02-21 08:06:19 51°17.866 2°51.544 2.5544 2.788979 30.610923 0.999154
2012-02-21 08:07:19 51°18.012 2°51.323 2.5695 2.789599 30.605078 1.030588
2012-02-21 08:08:19 51°18.188 2°51.192 2.6024 2.787118 30.550347 1.376365
2012-02-21 08:09:19 51°18.366 2°51.1 2.6345 2.789392 30.555007 1.093456
2012-02-21 08:10:19 51°18.478 2°51.029 2.6466 2.786497 30.49163 1.093456
2012-02-21 08:11:19 51°18.498 2°50.979 2.6595 2.790218 30.528928 0.841982
2012-02-21 08:12:19 51°18.487 2°50.964 2.6659 2.785773 30.464927 0.74768
2012-02-21 08:13:19 51°18.476 2°50.951 2.6735 2.785876 30.459555 0.936285
2012-02-21 08:14:19 51°18.465 2°50.938 2.6772 2.790839 30.51367 0.810548
2012-02-21 08:15:19 51°18.453 2°50.925 2.6843 2.790942 30.511129 0.716245
2012-02-21 08:16:19 51°18.441 2°50.913 2.6888 2.791149 30.508888 0.590508
2012-02-21 08:17:19 51°18.43 2°50.9 2.6974 2.791355 30.501919 0.810548
2012-02-21 08:18:19 51°18.42 2°50.885 2.6996 2.791976 30.509389 0.496206
2012-02-21 08:19:19 51°18.41 2°50.871 2.7058 2.791976 30.507497 0.653377
2012-02-21 08:20:19 51°18.399 2°50.858 2.7021 2.791976 30.506551 0.779114
2012-02-21 08:21:19 51°18.387 2°50.845 2.7043 2.791872 30.50247 0.559074
2012-02-21 08:22:19 51°18.376 2°50.835 2.709 2.791975 30.501823 0.621943
2012-02-21 08:23:19 51°18.364 2°50.825 2.7161 2.792182 30.499586 0.684811
2012-02-21 08:24:19 51°18.351 2°50.816 2.7126 2.792286 30.497995 0.653377
2012-02-21 08:25:19 51°18.339 2°50.806 2.7185 2.792182 30.495805 0.52764
2012-02-21 08:26:19 51°18.327 2°50.795 2.7249 2.792079 30.491726 0.684811
2012-02-21 08:27:19 51°18.316 2°50.785 2.7258 2.792492 30.491035 0.653377
2012-02-21 08:28:19 51°18.303 2°50.774 2.7309 2.792492 30.488202 0.52764
2012-02-21 08:29:19 51°18.292 2°50.764 2.7338 2.792699 30.487856 0.464771
2012-02-21 08:30:19 51°18.28 2°50.753 2.7397 2.792699 30.485968 0.716245
2012-02-21 08:31:19 51°18.289 2°50.736 2.7404 2.796007 30.522935 0.590508
2012-02-21 08:32:19 51°18.311 2°50.8 2.7379 2.796007 30.51443 0.52764
2012-02-21 08:33:19 51°18.346 2°50.997 2.7479 2.79549 30.508213 1.313496
2012-02-21 08:34:19 51°18.42 2°51.258 2.7584 2.79642 30.509015 0.904851
2012-02-21 08:35:19 51°18.483 2°51.532 2.757 2.796731 30.506136 1.062022
2012-02-21 08:36:19 51°18.534 2°51.816 2.7707 2.79673 30.49953 0.841982
2012-02-21 08:37:19 51°18.594 2°52.097 2.8024 2.743904 29.854377 1.156325
2012-02-21 08:38:19 51°18.662 2°52.375 2.8201 2.74039 29.792923 0.621943
2012-02-21 08:39:19 51°18.724 2°52.665 2.8339 2.740906 29.776113 0.936285
2012-02-21 08:40:19 51°18.79 2°52.945 2.8541 2.739252 29.745307 1.187759
2012-02-21 08:41:19 51°18.842 2°53.231 2.8621 2.740389 29.743302 1.250628
2012-02-21 08:42:19 51°18.901 2°53.508 2.8607 2.739769 29.731304 1.030588
2012-02-21 08:43:19 51°18.962 2°53.79 2.8441 2.738218 29.713691 0.716245
2012-02-21 08:44:19 51°19.025 2°54.07 2.8428 2.738012 29.720386 0.653377
2012-02-21 08:45:19 51°19.083 2°54.353 2.8524 2.736771 29.704642 0.999154
2012-02-21 08:46:19 51°19.143 2°54.633 2.8732 2.712893 29.412161 0.779114
2012-02-21 08:47:19 51°19.203 2°54.917 2.8996 2.689843 29.113882 0.967719
2012-02-21 08:48:19 51°19.267 2°55.2 2.9392 2.69098 29.099633 0.999154
2012-02-21 08:49:19 51°19.33 2°55.483 2.9651 2.690979 29.071002 1.124891
2012-02-21 08:50:19 51°19.393 2°55.765 2.9814 2.691496 29.055707 1.376365
2012-02-21 08:51:19 51°19.446 2°56.056 2.9875 2.692323 29.053035 1.093456
2012-02-21 08:52:19 51°19.509 2°56.338 2.9843 2.693563 29.064195 0.967719
2012-02-21 08:53:19 51°19.563 2°56.621 2.9771 2.649946 28.549451 0.999154
2012-02-21 08:54:19 51°19.623 2°56.901 2.9727 2.64974 28.552262 0.401903
2012-02-21 08:55:19 51°19.686 2°57.184 2.9735 2.648913 28.544216 0.370468
2012-02-21 08:56:19 51°19.733 2°57.479 2.9801 2.650257 28.561896 0.276166
2012-02-21 08:57:19 51°19.787 2°57.767 2.9872 2.648913 28.539834 0.08756
2012-02-21 08:58:19 51°19.85 2°58.053 2.9952 2.646226 28.500991 0.056126
2012-02-21 08:59:19 51°19.92 2°58.338 3.0048 2.643332 28.455358 0.3076
2012-02-21 09:00:19 51°19.984 2°58.628 3.0115 2.643228 28.448023 0.181863
2012-02-21 09:01:19 51°20.052 2°58.914 3.0121 2.641368 28.423389 0.213297
2012-02-21 09:02:19 51°20.117 2°59.202 2.9944 2.639611 28.408698 0.150429
2012-02-21 09:03:19 51°20.175 2°59.499 2.9861 2.634237 28.352058 0.276166
2012-02-21 09:04:19 51°20.233 2°59.794 2.9808 2.631964 28.333846 0.244731
2012-02-21 09:05:19 51°20.291 3°0.09 2.9829 2.62845 28.293991 0.213297
2012-02-21 09:06:19 51°20.346 3°0.388 2.9918 2.625246 28.25347 0.464771
2012-02-21 09:07:19 51°20.421 3°0.676 2.9973 2.623799 28.232883 0.401903
2012-02-21 09:08:19 51°20.489 3°0.968 3.0024 2.621009 28.192084 0.496206
2012-02-21 09:09:19 51°20.56 3°1.257 3.0111 2.617805 28.149017 0.433337
2012-02-21 09:10:19 51°20.626 3°1.551 3.0059 2.519533 26.983567 0.621943
2012-02-21 09:11:19 51°20.696 3°1.842 3.0162 2.533895 27.158351 0.433337
2012-02-21 09:12:19 51°20.747 3°2.143 3.019 2.502898 26.78475 0.496206
2012-02-21 09:13:19 51°20.81 3°2.442 3.0174 2.473969 26.443535 0.464771
2012-02-21 09:14:19 51°20.902 3°2.713 3.0168 2.497422 26.720429 0.559074
2012-02-21 09:15:19 51°20.99 3°2.987 3.0179 2.472729 26.428994 0.401903
2012-02-21 09:16:19 51°21.072 3°3.269 3.0227 2.473969 26.442724 0.401903
2012-02-21 09:17:19 51°21.138 3°3.561 3.0178 2.473556 26.437877 0.464771
2012-02-21 09:18:19 51°21.221 3°3.841 3.0171 2.417872 25.785736 0.276166
2012-02-21 09:19:19 51°21.303 3°4.121 3.0126 2.436777 26.00613 0.213297
2012-02-21 09:20:19 51°21.384 3°4.404 3.0154 2.500935 26.767435 0.181863
2012-02-21 09:21:19 51°21.461 3°4.69 3.0043 2.488123 26.619412 0.276166
2012-02-21 09:22:19 51°21.543 3°4.971 2.9958 2.442769 26.09148 0.118994
2012-02-21 09:23:19 51°21.625 3°5.253 2.9935 2.424277 25.874931 -0.069611
2012-02-21 09:24:19 51°21.672 3°5.556 2.9998 2.407749 25.684704 -0.006743
2012-02-21 09:25:19 51°21.719 3°5.86 2.998 2.451034 26.194762 -0.13248
2012-02-21 09:26:19 51°21.765 3°6.166 3.0021 2.411261 25.727366 0.118994
2012-02-21 09:27:19 51°21.82 3°6.469 3.0073 2.415186 25.770923 -0.069611
2012-02-21 09:28:19 51°21.863 3°6.778 3.0064 2.366843 25.198283 -0.069611
2012-02-21 09:29:19 51°21.914 3°7.083 3.0141 2.416529 25.779517 -0.13248
2012-02-21 09:30:19 51°21.961 3°7.392 3.0138 2.377172 25.310287 -0.006743
2012-02-21 09:31:19 51°22.014 3°7.698 3.0093 2.354035 25.042759 0.150429
2012-02-21 09:32:19 51°22.052 3°8.013 3.0117 2.412397 25.723295 -0.163914
2012-02-21 09:33:19 51°22.059 3°8.338 3.0103 2.782151 30.089909 -0.101045
2012-02-21 09:34:19 51°22.077 3°8.66 3.0175 2.780187 30.066503 -0.069611
2012-02-21 09:35:19 51°22.098 3°8.965 3.0152 2.777809 30.033566 0.213297
2012-02-21 09:36:19 51°22.124 3°9.266 3.0241 2.775742 30.006176 -0.038177
2012-02-21 09:37:19 51°22.15 3°9.571 3.0305 2.773984 29.981568 -0.195348
2012-02-21 09:38:19 51°22.179 3°9.902 3.0346 2.770883 29.94005 -0.038177
2012-02-21 09:39:19 51°22.23 3°10.234 3.0404 2.766128 29.877953 -0.163914
2012-02-21 09:40:19 51°22.273 3°10.571 3.0395 2.763957 29.849379 -0.006743
2012-02-21 09:41:19 51°22.314 3°10.909 3.0358 2.76313 29.834968 -0.13248
2012-02-21 09:42:19 51°22.315 3°11.256 3.0371 2.758374 29.78024 -0.226782
2012-02-21 09:43:19 51°22.331 3°11.605 3.0429 2.754033 29.732258 -0.13248
2012-02-21 09:44:19 51°22.355 3°11.955 3.0434 2.752689 29.712636 -0.13248
2012-02-21 09:45:19 51°22.39 3°12.306 3.0454 2.746176 29.636132 -0.038177
2012-02-21 09:46:19 51°22.407 3°12.66 3.0472 2.7377 29.529075 -0.226782
2012-02-21 09:47:19 51°22.42 3°12.926 3.0546 2.721988 29.339833 0.024692
2012-02-21 09:48:19 51°22.424 3°13.107 3.0518 2.727983 29.409188 -0.195348
2012-02-21 09:49:19 51°22.468 3°13.219 3.0501 2.732945 29.473507 -0.038177
2012-02-21 09:50:19 51°22.547 3°13.218 3.0504 2.736253 29.5146 -0.195348
2012-02-21 09:51:19 51°22.609 3°13.19 3.054 2.739354 29.548721 -0.101045
2012-02-21 09:52:19 51°22.62 3°13.209 3.0555 2.740697 29.561061 -0.195348
2012-02-21 09:53:19 51°22.627 3°13.239 3.0566 2.741214 29.568106 -0.195348
2012-02-21 09:54:19 51°22.634 3°13.274 3.0605 2.741524 29.570884 -0.195348
2012-02-21 09:55:19 51°22.639 3°13.308 3.0672 2.741834 29.570038 -0.289651
2012-02-21 09:56:19 51°22.644 3°13.343 3.0685 2.742558 29.573197 -0.195348
2012-02-21 09:57:19 51°22.648 3°13.38 3.0758 2.743282 29.577261 -0.258217
2012-02-21 09:58:19 51°22.654 3°13.415 3.0783 2.743902 29.580097 -0.289651
2012-02-21 09:59:19 51°22.699 3°13.391 3.0847 2.744212 29.583778 -0.383954
2012-02-21 10:00:19 51°22.806 3°13.264 3.0884 2.746279 29.601981 -0.226782
2012-02-21 10:01:19 51°22.957 3°13.098 3.086 2.754756 29.698992 -0.195348
2012-02-21 10:02:19 51°23.136 3°12.952 3.0949 2.761062 29.772061 -0.163914
2012-02-21 10:03:19 51°23.314 3°12.8 3.0896 2.76561 29.823355 -0.163914
2012-02-21 10:04:19 51°23.491 3°12.645 3.0944 2.769642 29.873081 -0.101045
2012-02-21 10:05:19 51°23.663 3°12.482 3.0852 2.772537 29.907478 -0.195348
2012-02-21 10:06:19 51°23.836 3°12.329 3.0439 2.777912 29.986055 -0.258217
2012-02-21 10:07:19 51°23.982 3°12.125 3.0169 2.783599 30.08962 -0.226782
2012-02-21 10:08:19 51°24.107 3°11.882 3.0121 2.785873 30.132416 -0.226782
2012-02-21 10:09:19 51°24.237 3°11.643 3.0211 2.786907 30.146587 -0.195348
2012-02-21 10:10:19 51°24.368 3°11.405 3.0161 2.786493 30.136111 -0.258217
2012-02-21 10:11:19 51°24.48 3°11.155 3.0025 2.790629 30.196512 -0.226782
2012-02-21 10:12:19 51°24.551 3°10.875 2.9957 2.810479 30.446402 -0.069611
2012-02-21 10:13:19 51°24.606 3°10.585 2.9991 2.822988 30.596773 0.213297
2012-02-21 10:14:19 51°24.648 3°10.289 3.0186 2.833327 30.712804 0.150429
2012-02-21 10:15:19 51°24.668 3°9.989 3.0395 2.84346 30.819752 0.213297
2012-02-21 10:16:19 51°24.701 3°9.691 3.0649 2.854109 30.923362 0.244731
2012-02-21 10:17:19 51°24.735 3°9.393 3.0974 2.863621 31.011397 0.213297
2012-02-21 10:18:19 51°24.752 3°9.092 3.1291 2.87272 31.086794 0.118994
2012-02-21 10:19:19 51°24.772 3°8.79 3.1804 2.880991 31.149357 0.150429
2012-02-21 10:20:19 51°24.807 3°8.494 3.2424 2.890814 31.216971 0.276166
2012-02-21 10:21:19 51°24.825 3°8.193 3.2938 2.902085 31.297853 0.213297
2012-02-21 10:22:19 51°24.842 3°7.891 3.3418 2.909736 31.339327 0.118994
2012-02-21 10:23:19 51°24.963 3°7.671 3.366 2.917181 31.383016 0.339034
2012-02-21 10:24:19 51°25.122 3°7.522 3.414 2.921524 31.412668 0.150429
2012-02-21 10:25:19 51°25.314 3°7.536 3.4666 2.929486 31.454728 0.056126
2012-02-21 10:26:19 51°25.506 3°7.61 3.5213 2.936931 31.492473 0.024692
2012-02-21 10:27:19 51°25.692 3°7.721 3.5929 2.944377 31.527281 0.150429
2012-02-21 10:28:19 51°25.875 3°7.85 3.6663 2.957199 31.608382 -0.006743
2012-02-21 10:29:19 51°26.058 3°7.978 3.7169 2.964541 31.631286 -0.006743
2012-02-21 10:30:19 51°26.229 3°8.101 3.7477 2.968988 31.639037 0.08756
2012-02-21 10:31:19 51°26.32 3°8.213 3.7673 2.971263 31.637355 0.181863
2012-02-21 10:32:19 51°26.403 3°8.284 3.7774 2.97209 31.634764 0.118994
2012-02-21 10:33:19 51°26.448 3°8.303 3.7861 2.97271 31.632586 -0.13248
2012-02-21 10:34:19 51°26.449 3°8.324 3.7891 2.973434 31.632572 -0.101045
2012-02-21 10:35:19 51°26.444 3°8.358 3.8052 2.973641 31.631215 -0.101045
2012-02-21 10:36:19 51°26.438 3°8.401 3.8099 2.974779 31.629438 -0.006743
2012-02-21 10:37:19 51°26.427 3°8.446 3.812 2.975089 31.630243 -0.069611
2012-02-21 10:38:19 51°26.415 3°8.491 3.8171 2.975192 31.62862 -0.13248
2012-02-21 10:39:19 51°26.404 3°8.535 3.8145 2.975399 31.630103 -0.226782
2012-02-21 10:40:19 51°26.394 3°8.579 3.8145 2.975296 31.626997 -0.195348
2012-02-21 10:41:19 51°26.389 3°8.621 3.8176 2.975089 31.625514 -0.226782
2012-02-21 10:42:19 51°26.419 3°8.626 3.8163 2.974882 31.622139 -0.258217
2012-02-21 10:43:19 51°26.477 3°8.496 3.8202 2.974468 31.615391 -0.163914
2012-02-21 10:44:19 51°26.565 3°8.265 3.8192 2.974468 31.614446 -0.101045
2012-02-21 10:45:19 51°26.636 3°8.003 3.8264 2.975296 31.621323 -0.038177
2012-02-21 10:46:19 51°26.72 3°7.748 3.8364 2.977054 31.631562 -0.13248
2012-02-21 10:47:19 51°26.807 3°7.496 3.8477 2.979225 31.650433 -0.006743
2012-02-21 10:48:19 51°26.882 3°7.234 3.8576 2.981811 31.669423 -0.289651
2012-02-21 10:49:19 51°26.962 3°6.974 3.861 2.983983 31.687336 -0.226782
2012-02-21 10:50:19 51°27.049 3°6.721 3.865 2.986154 31.707136 -0.226782
2012-02-21 10:51:19 51°27.127 3°6.458 3.8722 2.988223 31.726665 -0.35252
2012-02-21 10:52:19 51°27.218 3°6.209 3.8711 2.98543 31.689182 -0.195348
2012-02-21 10:53:19 51°27.317 3°5.962 3.8719 2.986154 31.703349 -0.321085
2012-02-21 10:54:19 51°27.414 3°5.715 3.8821 2.994428 31.792824 -0.226782
2012-02-21 10:55:19 51°27.512 3°5.465 3.8818 2.996807 31.813136 -0.195348
2012-02-21 10:56:19 51°27.601 3°5.208 3.8922 3.003736 31.894433 -0.258217
2012-02-21 10:57:19 51°27.704 3°4.967 3.8856 3.005288 31.907877 -0.35252
2012-02-21 10:58:19 51°27.813 3°4.733 3.877 3.006322 31.923822 -0.541125
2012-02-21 10:59:19 51°27.908 3°4.483 3.8675 3.005495 31.924591 -0.478257
2012-02-21 11:00:19 51°28.004 3°4.237 3.854 3.005702 31.933691 -0.541125
2012-02-21 11:01:19 51°28.108 3°3.996 3.8287 3.004771 31.938019 -0.541125
2012-02-21 11:02:19 51°28.19 3°3.745 3.7852 3.002496 31.938962 -0.509691
2012-02-21 11:03:19 51°28.246 3°3.59 3.7395 2.998359 31.932346 -0.635428
2012-02-21 11:04:19 51°28.291 3°3.506 3.7029 2.993188 31.91354 -0.572559
2012-02-21 11:05:19 51°28.31 3°3.512 3.6846 2.989569 31.901507 -0.478257
2012-02-21 11:06:19 51°28.326 3°3.543 3.6745 2.987811 31.892265 -0.509691
2012-02-21 11:07:19 51°28.339 3°3.581 3.6696 2.985846 31.887283 -0.603994
2012-02-21 11:08:19 51°28.349 3°3.626 3.6686 2.985225 31.879961 -0.509691
2012-02-21 11:09:19 51°28.357 3°3.676 3.6676 2.985019 31.876563 -0.541125
2012-02-21 11:10:19 51°28.366 3°3.726 3.6647 2.984605 31.875512 -0.541125
2012-02-21 11:11:19 51°28.373 3°3.776 3.6623 2.984191 31.872546 -0.541125
2012-02-21 11:12:19 51°28.381 3°3.827 3.6562 2.983571 31.87097 -0.603994
2012-02-21 11:13:19 51°28.389 3°3.879 3.6541 2.983054 31.86774 -0.541125
2012-02-21 11:14:19 51°28.397 3°3.929 3.6548 2.982847 31.867215 -0.541125
2012-02-21 11:15:19 51°28.407 3°3.982 3.6535 2.98264 31.866689 -0.541125
2012-02-21 11:16:19 51°28.416 3°4.035 3.6534 2.982537 31.865468 -0.603994
2012-02-21 11:17:19 51°28.425 3°4.088 3.6557 2.982537 31.86451 -0.666862
2012-02-21 11:18:19 51°28.432 3°4.145 3.6534 2.982537 31.86451 -0.603994
2012-02-21 11:19:19 51°28.44 3°4.2 3.655 2.982433 31.864248 -0.572559
2012-02-21 11:20:19 51°28.463 3°4.238 3.6535 2.98233 31.864942 -0.666862
2012-02-21 11:21:19 51°28.488 3°4.239 3.6522 2.982226 31.863722 -0.541125
2012-02-21 11:22:19 51°28.5 3°4.095 3.6557 2.982123 31.863459 -0.541125
2012-02-21 11:23:19 51°28.504 3°3.863 3.6479 2.982226 31.861806 -0.478257
2012-02-21 11:24:19 51°28.456 3°3.593 3.6383 2.981606 31.863102 -0.415388
2012-02-21 11:25:19 51°28.398 3°3.324 3.6339 2.981606 31.862144 -0.35252
2012-02-21 11:26:19 51°28.346 3°3.051 3.6295 2.980779 31.864832 -0.415388
2012-02-21 11:27:19 51°28.311 3°2.771 3.6168 2.980262 31.864476 -0.289651
2012-02-21 11:28:19 51°28.267 3°2.496 3.6037 2.979331 31.863068 -0.446822
2012-02-21 11:29:19 51°28.218 3°2.223 3.5908 2.977573 31.852841 -0.509691
2012-02-21 11:30:19 51°28.172 3°1.95 3.5827 2.975608 31.840164 -0.541125
2012-02-21 11:31:19 51°28.137 3°1.671 3.5703 2.973436 31.825995 -0.572559
2012-02-21 11:32:19 51°28.09 3°1.397 3.5569 2.971058 31.817044 -0.415388
2012-02-21 11:33:19 51°28.043 3°1.125 3.5389 2.96961 31.801834 -0.509691
2012-02-21 11:34:19 51°28.008 3°0.848 3.5263 2.967955 31.796641 -0.446822
2012-02-21 11:35:19 51°27.973 3°0.571 3.4988 2.96568 31.791774 -0.509691
2012-02-21 11:36:19 51°27.936 3°0.294 3.4771 2.962371 31.777532 -0.478257
2012-02-21 11:37:19 51°27.886 3°0.023 3.4669 2.960096 31.765932 -0.478257
2012-02-21 11:38:19 51°27.847 2°59.748 3.4555 2.958855 31.761784 -0.446822
2012-02-21 11:39:19 51°27.801 2°59.476 3.453 2.956994 31.753157 -0.478257
2012-02-21 11:40:19 51°27.767 2°59.197 3.4314 2.955856 31.74927 -0.446822
2012-02-21 11:41:19 51°27.72 2°58.929 3.4229 2.954409 31.743623 -0.572559
2012-02-21 11:42:19 51°27.673 2°58.658 3.416 2.953478 31.742188 -0.572559
2012-02-21 11:43:19 51°27.643 2°58.38 3.4018 2.952547 31.739791 -0.541125
2012-02-21 11:44:19 51°27.601 2°58.111 3.3963 2.951513 31.73905 -0.572559
2012-02-21 11:45:19 51°27.563 2°57.838 3.3919 2.951824 31.741773 -0.603994
2012-02-21 11:46:19 51°27.53 2°57.562 3.3826 2.951617 31.750862 -0.572559
2012-02-21 11:47:19 51°27.489 2°57.291 3.3698 2.951617 31.756638 -0.635428
2012-02-21 11:48:19 51°27.462 2°57.016 3.3289 2.951617 31.771088 -0.572559
2012-02-21 11:49:19 51°27.423 2°56.748 3.301 2.949342 31.789368 -0.666862
2012-02-21 11:50:19 51°27.38 2°56.484 3.2982 2.948619 31.799106 -0.698296
2012-02-21 11:51:19 51°27.344 2°56.214 3.304 2.949963 31.813184 -0.666862
2012-02-21 11:52:19 51°27.317 2°55.938 3.3157 2.952238 31.833509 -0.635428
2012-02-21 11:53:19 51°27.274 2°55.671 3.331 2.954823 31.852683 -0.698296
2012-02-21 11:54:19 51°27.241 2°55.399 3.3541 2.958546 31.882485 -0.603994
2012-02-21 11:55:19 51°27.21 2°55.126 3.3836 2.963924 31.923238 -0.635428
2012-02-21 11:56:19 51°27.133 2°54.881 3.4106 2.969405 31.963242 -0.666862
2012-02-21 11:57:19 51°27.057 2°54.641 3.4311 2.974782 31.995189 -0.572559
2012-02-21 11:58:19 51°26.986 2°54.396 3.4264 2.97561 31.996299 -0.666862
2012-02-21 11:59:19 51°26.93 2°54.143 3.4204 2.974989 31.991834 -0.698296
2012-02-21 12:00:19 51°26.871 2°53.891 3.4258 2.974265 31.987108 -0.635428
2012-02-21 12:01:19 51°26.822 2°53.63 3.4098 2.973334 31.977986 -0.572559
2012-02-21 12:02:19 51°26.768 2°53.369 3.4066 2.971576 31.967748 -0.478257
2012-02-21 12:03:19 51°26.706 2°53.111 3.4023 2.970542 31.958362 -0.383954
2012-02-21 12:04:19 51°26.662 2°52.844 3.4041 2.969611 31.9473 -0.383954
2012-02-21 12:05:19 51°26.613 2°52.582 3.4063 2.968681 31.936239 -0.446822
2012-02-21 12:06:19 51°26.552 2°52.328 3.415 2.968681 31.931402 -0.35252
2012-02-21 12:07:19 51°26.496 2°52.073 3.4276 2.968887 31.92709 -0.321085
2012-02-21 12:08:19 51°26.453 2°51.809 3.4343 2.969508 31.926726 -0.258217
2012-02-21 12:09:19 51°26.396 2°51.552 3.4314 2.970335 31.930752 -0.226782
2012-02-21 12:10:19 51°26.356 2°51.287 3.4369 2.970025 31.923202 -0.258217
2012-02-21 12:11:19 51°26.349 2°51.013 3.4502 2.976851 32.00426 -0.038177
2012-02-21 12:12:19 51°26.334 2°50.74 3.4667 2.978815 32.01016 -0.195348
2012-02-21 12:13:19 51°26.297 2°50.475 3.4859 2.981401 32.021484 -0.35252
2012-02-21 12:14:19 51°26.264 2°50.208 3.4903 2.982642 32.025562 -0.069611
2012-02-21 12:15:19 51°26.241 2°49.935 3.5282 2.983676 32.023315 -0.226782
2012-02-21 12:16:19 51°26.217 2°49.663 3.5798 2.987709 32.033414 -0.101045
2012-02-21 12:17:19 51°26.184 2°49.394 3.6251 2.99319 32.050016 -0.163914
2012-02-21 12:18:19 51°26.143 2°49.128 3.6737 2.998671 32.067554 -0.13248
2012-02-21 12:19:19 51°26.103 2°48.856 3.7043 3.004359 32.092322 -0.069611
2012-02-21 12:20:19 51°26.051 2°48.601 3.7383 3.008703 32.119493 0.276166
2012-02-21 12:21:19 51°26.049 2°48.512 3.7888 3.014908 32.146422 0.118994
2012-02-21 12:22:19 51°26.085 2°48.53 3.814 3.020906 32.175677 -0.195348
2012-02-21 12:23:19 51°26.118 2°48.575 3.8224 3.023285 32.190202 -0.226782
2012-02-21 12:24:19 51°26.151 2°48.623 3.8369 3.024836 32.196908 -0.163914
2012-02-21 12:25:19 51°26.183 2°48.672 3.8628 3.026801 32.200779 -0.163914
2012-02-21 12:26:19 51°26.211 2°48.72 3.8704 3.02856 32.206063 -0.289651
2012-02-21 12:27:19 51°26.242 2°48.769 3.8781 3.028559 32.195488 -0.226782
2012-02-21 12:28:19 51°26.269 2°48.82 3.8848 3.029077 32.193877 -0.415388
2012-02-21 12:29:19 51°26.297 2°48.876 3.8882 3.012838 31.997435 -0.446822
2012-02-21 12:30:19 51°26.323 2°48.932 3.8913 3.012424 31.987807 -0.478257
2012-02-21 12:31:19 51°26.352 2°48.987 3.8932 3.012217 31.983471 -0.478257
2012-02-21 12:32:19 51°26.394 2°48.99 3.8978 3.0117 31.977402 -0.478257
2012-02-21 12:33:19 51°26.405 2°48.939 3.8996 3.011286 31.969687 -0.383954
2012-02-21 12:34:19 51°26.372 2°48.88 3.9055 3.012217 31.97584 -0.258217
2012-02-21 12:35:19 51°26.302 2°48.682 3.9265 3.013045 31.978872 0.024692
2012-02-21 12:36:19 51°26.214 2°48.443 3.9337 3.016147 31.987615 0.118994
2012-02-21 12:37:19 51°26.117 2°48.212 3.9471 3.018112 32.005884 0.401903
2012-02-21 12:38:19 51°26.02 2°47.979 3.9716 3.020698 32.019981 0.213297
2012-02-21 12:39:19 51°25.927 2°47.743 3.9996 3.02349 32.027916 0.213297
2012-02-21 12:40:19 51°25.837 2°47.5 4.0118 3.026386 32.039911 0.08756
2012-02-21 12:41:19 51°25.732 2°47.271 4.0238 3.027731 32.044218 -0.038177
2012-02-21 12:42:19 51°25.635 2°47.035 4.0374 3.029075 32.044717 0.056126
2012-02-21 12:43:19 51°25.539 2°46.792 4.0577 3.031247 32.05489 -0.069611
2012-02-21 12:44:19 51°25.441 2°46.551 4.0938 3.033522 32.06246 -0.006743
2012-02-21 12:45:19 51°25.349 2°46.309 4.1259 3.037452 32.072241 -0.195348
2012-02-21 12:46:19 51°25.245 2°46.078 4.155 3.040969 32.081933 -0.446822
2012-02-21 12:47:19 51°25.14 2°45.849 4.1867 3.045623 32.108673 -0.478257
2012-02-21 12:48:19 51°25.047 2°45.603 4.2046 3.049243 32.126179 -0.541125
2012-02-21 12:49:19 51°24.95 2°45.36 4.2358 3.051829 32.135418 -0.509691
2012-02-21 12:50:19 51°24.843 2°45.131 4.274 3.05638 32.154242 -0.541125
2012-02-21 12:51:19 51°24.744 2°44.893 4.3211 3.062068 32.17963 -0.509691
2012-02-21 12:52:19 51°24.644 2°44.661 4.3383 3.067964 32.210219 -0.541125
2012-02-21 12:53:19 51°24.548 2°44.426 4.3253 3.068378 32.205551 -0.478257
2012-02-21 12:54:19 51°24.443 2°44.205 4.3048 3.065171 32.183472 -0.321085
2012-02-21 12:55:19 51°24.352 2°43.972 4.2702 3.059172 32.139347 -0.541125
2012-02-21 12:56:19 51°24.254 2°43.744 4.2478 3.053587 32.102821 -0.415388
2012-02-21 12:57:19 51°24.152 2°43.519 4.2278 3.05007 32.082743 -0.509691
2012-02-21 12:58:19 51°24.057 2°43.287 4.1994 3.045002 32.044594 -0.478257
2012-02-21 12:59:19 51°23.961 2°43.062 4.1751 3.040554 32.014581 -0.415388
2012-02-21 13:00:19 51°23.869 2°42.826 4.152 3.035073 31.976273 -0.478257
2012-02-21 13:01:19 51°23.76 2°42.61 4.1462 3.030212 31.937597 -0.289651
2012-02-21 13:02:19 51°23.667 2°42.378 4.146 3.028764 31.922615 -0.446822
2012-02-21 13:03:19 51°23.573 2°42.147 4.142 3.026798 31.902551 -0.509691
2012-02-21 13:04:19 51°23.47 2°41.924 4.1369 3.026281 31.9003 -0.415388
2012-02-21 13:05:19 51°23.378 2°41.687 4.1324 3.025764 31.893331 -0.541125
2012-02-21 13:06:19 51°23.275 2°41.464 4.1285 3.024626 31.888566 -0.541125
2012-02-21 13:07:19 51°23.138 2°41.292 4.1292 3.023489 31.879081 -0.509691
2012-02-21 13:08:19 51°23 2°41.119 4.1244 3.022454 31.867027 -0.572559
2012-02-21 13:09:19 51°22.862 2°40.948 4.1169 3.021006 31.857695 -0.446822
2012-02-21 13:10:19 51°22.716 2°40.789 4.1082 3.018421 31.83604 -0.321085
2012-02-21 13:11:19 51°22.569 2°40.629 4.1042 3.017387 31.824926 -0.603994
2012-02-21 13:12:19 51°22.428 2°40.459 4.0955 3.015939 31.813699 -0.446822
2012-02-21 13:13:19 51°22.299 2°40.264 4.0827 3.013767 31.794029 -0.541125
2012-02-21 13:14:19 51°22.205 2°40.024 4.081 3.011181 31.775179 -0.541125
2012-02-21 13:15:19 51°22.111 2°39.783 4.07 3.009319 31.765706 -0.415388
2012-02-21 13:16:19 51°22.02 2°39.539 4.0661 3.007975 31.753787 -0.541125
2012-02-21 13:17:19 51°21.928 2°39.297 4.0675 3.006527 31.741601 -0.509691
2012-02-21 13:18:19 51°21.832 2°39.059 4.0533 3.0027 31.699779 -0.603994
2012-02-21 13:19:19 51°21.75 2°38.806 4.0517 3.001046 31.684234 -0.478257
2012-02-21 13:20:19 51°21.654 2°38.567 4.0482 2.99877 31.665204 -0.541125
2012-02-21 13:21:19 51°21.562 2°38.32 4.0447 2.997529 31.656359 -0.446822
2012-02-21 13:22:19 51°21.48 2°38.065 4.0264 2.995668 31.645904 -0.509691
2012-02-21 13:23:19 51°21.436 2°37.789 4.0304 2.993909 31.624444 -0.383954
2012-02-21 13:24:19 51°21.417 2°37.504 4.0233 2.993496 31.626187 -0.321085
2012-02-21 13:25:19 51°21.369 2°37.234 4.0201 2.992048 31.614918 -0.415388
2012-02-21 13:26:19 51°21.315 2°36.965 4.0029 2.989462 31.593178 -0.478257
2012-02-21 13:27:19 51°21.275 2°36.689 3.9844 2.985946 31.566189 -0.321085
2012-02-21 13:28:19 51°21.23 2°36.417 3.9783 2.980775 31.518916 -0.35252
2012-02-21 13:29:19 51°21.17 2°36.152 3.9903 2.979534 31.507229 -0.541125
2012-02-21 13:30:19 51°21.12 2°35.879 3.9862 2.97912 31.497715 -0.541125
2012-02-21 13:31:19 51°21.077 2°35.603 3.9972 2.979534 31.496928 -0.509691
2012-02-21 13:32:19 51°21.029 2°35.339 4.053 2.982016 31.507186 -0.478257
2012-02-21 13:33:19 51°20.986 2°35.073 4.1042 2.988428 31.532403 -0.635428
2012-02-21 13:34:19 51°20.94 2°34.802 4.1172 2.996598 31.589262 -0.383954
2012-02-21 13:35:19 51°20.896 2°34.529 4.1265 2.999907 31.614706 -0.572559
2012-02-21 13:36:19 51°20.857 2°34.255 4.1375 3.001459 31.622475 -0.478257
2012-02-21 13:37:19 51°20.801 2°33.99 4.1638 3.002286 31.620879 -0.541125
2012-02-21 13:38:19 51°20.758 2°33.714 4.1927 3.005492 31.631997 -0.541125
2012-02-21 13:39:19 51°20.724 2°33.431 4.2155 3.009939 31.656594 -0.383954
2012-02-21 13:40:19 51°20.674 2°33.157 4.2434 3.013145 31.668615 -0.446822
2012-02-21 13:41:19 51°20.617 2°32.888 4.2896 3.017075 31.683424 -0.446822
2012-02-21 13:42:19 51°20.575 2°32.608 4.3474 3.02359 31.709532 -0.509691
2012-02-21 13:43:19 51°20.535 2°32.326 4.3925 3.031761 31.758479 -0.383954
2012-02-21 13:44:19 51°20.478 2°32.052 4.4321 3.038484 31.796175 -0.415388
2012-02-21 13:45:19 51°20.426 2°31.777 4.4702 3.047068 31.856256 -0.258217
2012-02-21 13:46:19 51°20.383 2°31.494 4.5114 3.049861 31.850278 -0.321085
2012-02-21 13:47:19 51°20.323 2°31.22 4.5468 3.055032 31.873627 -0.35252
2012-02-21 13:48:19 51°20.27 2°30.946 4.5771 3.060514 31.905173 -0.478257
2012-02-21 13:49:19 51°20.226 2°30.669 4.6385 3.065065 31.927815 -0.415388
2012-02-21 13:50:19 51°20.178 2°30.397 4.7252 3.074477 31.960766 -0.478257
2012-02-21 13:51:19 51°20.124 2°30.15 4.7749 3.086166 32.029035 -0.572559
2012-02-21 13:52:19 51°20.065 2°30.019 4.8139 3.093613 32.067076 -0.635428
2012-02-21 13:53:19 51°20.012 2°30 4.8236 3.099199 32.100435 -0.635428
2012-02-21 13:54:19 51°19.986 2°29.994 4.8222 3.100647 32.108663 -0.509691
2012-02-21 13:55:19 51°20.005 2°29.985 4.8146 3.098992 32.095276 -0.478257
2012-02-21 13:56:19 51°20.037 2°30.008 4.8163 3.09744 32.081214 -0.572559
2012-02-21 13:57:19 51°20.066 2°30.043 4.8144 3.096613 32.070803 -0.572559
2012-02-21 13:58:19 51°20.092 2°30.085 4.8256 3.095682 32.05828 -0.446822
2012-02-21 13:59:19 51°20.115 2°30.134 4.8267 3.096095 32.055596 -0.478257
2012-02-21 14:00:19 51°20.137 2°30.184 4.8321 3.098164 32.077437 -0.446822
2012-02-21 14:01:19 51°20.158 2°30.233 4.8343 3.095475 32.042923 -0.321085
2012-02-21 14:02:19 51°20.177 2°30.28 4.835 3.094647 32.031593 -0.478257
2012-02-21 14:03:19 51°20.226 2°30.333 4.8376 3.095268 32.038699 -0.415388
2012-02-21 14:04:19 51°20.256 2°30.463 4.8456 3.096406 32.040603 -0.478257
2012-02-21 14:05:19 51°20.214 2°30.672 4.8503 3.096199 32.031749 -0.415388
2012-02-21 14:06:19 51°20.102 2°30.929 4.8301 3.096612 32.03 -0.572559
2012-02-21 14:07:19 51°19.943 2°31.121 4.8082 3.091647 31.989841 -0.572559
2012-02-21 14:08:19 51°19.792 2°31.342 4.8242 3.088854 31.972675 -0.698296
2012-02-21 14:09:19 51°19.651 2°31.576 4.7971 3.089371 31.973044 -0.572559
2012-02-21 14:10:19 51°19.516 2°31.824 4.7548 3.085751 31.956571 -0.415388
2012-02-21 14:11:19 51°19.38 2°32.062 4.7224 3.0782 31.911681 -0.289651
2012-02-21 14:12:19 51°19.246 2°32.306 4.6465 3.07065 31.869486 -0.635428
2012-02-21 14:13:19 51°19.112 2°32.546 4.5976 3.062272 31.836224 -0.666862
2012-02-21 14:14:19 51°18.978 2°32.783 4.5178 3.05348 31.788841 -0.572559
2012-02-21 14:15:19 51°18.847 2°33.027 4.4515 3.03962 31.70239 -0.258217
2012-02-21 14:16:19 51°18.716 2°33.268 4.4268 3.028967 31.626742 -0.572559
2012-02-21 14:17:19 51°18.58 2°33.507 4.3317 3.0239 31.597863 -0.541125
2012-02-21 14:18:19 51°18.443 2°33.739 4.2556 3.009834 31.530654 -0.383954
2012-02-21 14:19:19 51°18.307 2°33.982 4.246 2.996803 31.440857 -0.855468
2012-02-21 14:20:19 51°18.171 2°34.223 4.2296 2.992563 31.389859 -0.603994
2012-02-21 14:21:19 51°18.034 2°34.466 4.1924 2.98884 31.367046 -0.415388
2012-02-21 14:22:19 51°17.9 2°34.716 4.1131 2.982325 31.352523 -0.383954
2012-02-21 14:23:19 51°17.762 2°34.963 4.0779 2.969398 31.2523 -0.35252
2012-02-21 14:24:19 51°17.617 2°35.197 4.0607 2.964641 31.228426 -0.321085
2012-02-21 14:25:19 51°17.477 2°35.435 4.0501 2.960608 31.197221 -0.006743
2012-02-21 14:26:19 51°17.337 2°35.673 4.031 2.958746 31.191276 -0.666862
2012-02-21 14:27:19 51°17.194 2°35.906 4.0044 2.955437 31.171241 -0.226782
2012-02-21 14:28:19 51°17.055 2°36.143 3.9651 2.950577 31.141436 -0.321085
2012-02-21 14:29:19 51°16.906 2°36.353 3.864 2.940649 31.07006 -0.13248
2012-02-21 14:30:19 51°16.738 2°36.523 3.8221 2.927827 31.003529 0.056126
2012-02-21 14:31:19 51°16.602 2°36.663 3.8021 2.919038 30.940492 0.08756
2012-02-21 14:32:19 51°16.543 2°36.805 3.8209 2.915108 30.904678 -0.101045
2012-02-21 14:33:19 51°16.615 2°36.912 3.8505 2.911696 30.852766 -0.101045
2012-02-21 14:34:19 51°16.652 2°36.947 3.8783 2.914591 30.857136 -0.069611
2012-02-21 14:35:19 51°16.67 2°36.994 3.879 2.917486 30.876231 -0.163914
2012-02-21 14:36:19 51°16.689 2°37.04 3.8771 2.916969 30.866509 -0.13248
2012-02-21 14:37:19 51°16.71 2°37.087 3.8824 2.916039 30.858401 -0.195348
2012-02-21 14:38:19 51°16.732 2°37.133 3.8823 2.91366 30.828784 -0.195348
2012-02-21 14:39:19 51°16.754 2°37.178 3.8847 2.91366 30.82235 -0.289651
2012-02-21 14:40:19 51°16.777 2°37.223 3.8871 2.912833 30.811773 -0.226782
2012-02-21 14:41:19 51°16.814 2°37.262 3.8983 2.912523 30.807233 -0.321085
2012-02-21 14:42:19 51°16.873 2°37.357 3.8847 2.914384 30.816102 -0.13248
2012-02-21 14:43:19 51°16.85 2°37.493 3.8747 2.91304 30.816025 -0.415388
2012-02-21 14:44:19 51°16.724 2°37.639 3.8603 2.91304 30.82062 -0.478257
2012-02-21 14:45:19 51°16.551 2°37.759 3.776 2.910041 30.793869 -0.321085
2012-02-21 14:46:19 51°16.364 2°37.742 3.6695 2.898357 30.771272 0.056126
2012-02-21 14:47:19 51°16.187 2°37.657 3.847 2.880883 30.624412 0.464771
2012-02-21 14:48:19 51°16.004 2°37.641 4.0216 2.904147 30.69849 0.056126
2012-02-21 14:49:19 51°15.816 2°37.644 4.0826 2.934858 30.919746 -0.069611
2012-02-21 14:50:19 51°15.627 2°37.635 4.0384 2.942406 30.980916 0.118994
2012-02-21 14:51:19 51°15.435 2°37.624 4.0035 2.938994 30.980726 -0.006743
2012-02-21 14:52:19 51°15.243 2°37.61 3.8911 2.930928 30.927253 0.118994
2012-02-21 14:53:19 51°15.052 2°37.593 3.7338 2.920692 30.919213 0.056126
2012-02-21 14:54:19 51°14.86 2°37.563 3.6286 2.889672 30.701715 0.370468
2012-02-21 14:55:19 51°14.667 2°37.548 3.5995 2.871164 30.559053 0.181863
2012-02-21 14:56:19 51°14.472 2°37.539 3.619 2.865063 30.501191 0.52764
2012-02-21 14:57:19 51°14.276 2°37.535 3.6584 2.866097 30.494993 0.3076
2012-02-21 14:58:19 51°14.08 2°37.501 3.7124 2.872301 30.530197 0.339034
2012-02-21 14:59:19 51°13.882 2°37.467 3.7656 2.880882 30.581286 0.496206
2012-02-21 15:00:19 51°13.682 2°37.452 3.7739 2.888224 30.626904 0.433337
2012-02-21 15:01:19 51°13.486 2°37.421 3.772 2.888741 30.632037 0.276166
2012-02-21 15:02:19 51°13.291 2°37.39 3.7965 2.886466 30.599015 0.496206
2012-02-21 15:03:19 51°13.096 2°37.364 3.8065 2.888947 30.609731 0.276166
2012-02-21 15:04:19 51°12.899 2°37.328 3.8053 2.889671 30.610873 0.3076
2012-02-21 15:05:19 51°12.702 2°37.307 3.8075 2.889154 30.599343 0.401903
2012-02-21 15:06:19 51°12.504 2°37.292 3.7832 2.895875 30.685232 0.370468
2012-02-21 15:07:19 51°12.307 2°37.252 3.7565 2.889981 30.642887 0.716245
2012-02-21 15:08:19 51°12.11 2°37.232 3.754 2.885122 30.604349 0.621943
2012-02-21 15:09:19 51°11.913 2°37.205 3.7485 2.884605 30.595551 0.339034
2012-02-21 15:10:19 51°11.719 2°37.146 3.7057 2.883674 30.59565 0.464771
2012-02-21 15:11:19 51°11.521 2°37.101 3.6589 2.877057 30.566708 0.213297
2012-02-21 15:12:19 51°11.324 2°37.052 3.6661 2.870853 30.525135 0.276166
2012-02-21 15:13:19 51°11.129 2°36.995 3.6917 2.871784 30.521388 0.181863
2012-02-21 15:14:19 51°10.934 2°36.938 3.7073 2.876643 30.556362 0.810548
2012-02-21 15:15:19 51°10.738 2°36.924 3.7149 2.8814 30.604762 0.433337
2012-02-21 15:16:19 51°10.545 2°36.88 3.7054 2.883054 30.61956 0.3076
2012-02-21 15:17:19 51°10.365 2°36.978 3.7142 2.88171 30.610233 0.464771
2012-02-21 15:18:19 51°10.344 2°37.29 3.7266 2.884605 30.643245 0.150429
2012-02-21 15:19:19 51°10.405 2°37.622 3.7419 2.88171 30.583643 0.118994
2012-02-21 15:20:19 51°10.467 2°37.957 3.7494 2.881709 30.573569 0.181863
2012-02-21 15:21:19 51°10.52 2°38.294 3.7561 2.882123 30.570173 0.024692
2012-02-21 15:22:19 51°10.569 2°38.633 3.7523 2.880986 30.557778 0.024692
2012-02-21 15:23:19 51°10.627 2°38.967 3.7008 2.88233 30.587242 0.024692
2012-02-21 15:24:19 51°10.677 2°39.299 3.6406 2.875816 30.561332 -0.038177
2012-02-21 15:25:19 51°10.72 2°39.633 3.6137 2.866511 30.49893 0.181863
2012-02-21 15:26:19 51°10.777 2°39.966 3.6003 2.861445 30.468778 0.08756
2012-02-21 15:27:19 51°10.836 2°40.299 3.6469 2.857619 30.415619 0.024692
2012-02-21 15:28:19 51°10.877 2°40.636 3.6597 2.857102 30.36572 0.150429
2012-02-21 15:29:19 51°10.932 2°40.965 3.621 2.853173 30.326956 0.08756
2012-02-21 15:30:19 51°10.989 2°41.294 3.5848 2.844488 30.264255 -0.038177
2012-02-21 15:31:19 51°11.029 2°41.625 3.5394 2.838388 30.223603 0.118994
2012-02-21 15:32:19 51°11.068 2°41.919 3.5022 2.830841 30.170432 0.056126
2012-02-21 15:33:19 51°11.091 2°42.087 3.4958 2.825568 30.139374 0.024692
2012-02-21 15:34:19 51°11.141 2°42.147 3.4993 2.823811 30.125071 0.024692
2012-02-21 15:35:19 51°11.154 2°42.156 3.5046 2.826085 30.147273 -0.038177
2012-02-21 15:36:19 51°11.164 2°42.166 3.5013 2.826499 30.154866 -0.006743
2012-02-21 15:37:19 51°11.172 2°42.177 3.5028 2.822363 30.106231 0.056126
2012-02-21 15:38:19 51°11.178 2°42.191 3.5049 2.822363 30.105322 -0.101045
2012-02-21 15:39:19 51°11.181 2°42.206 3.5076 2.82195 30.097734 -0.163914
2012-02-21 15:40:19 51°11.193 2°42.222 3.5124 2.82257 30.103211 -0.163914
2012-02-21 15:41:19 51°11.224 2°42.324 3.5343 2.822673 30.090806 -0.038177
2012-02-21 15:42:19 51°11.224 2°42.584 3.5359 2.826292 30.118801 -0.101045
2012-02-21 15:43:19 51°11.226 2°42.912 3.4862 2.826395 30.130915 -0.069611
2012-02-21 15:44:19 51°11.267 2°43.235 3.4548 2.82164 30.11681 0.024692
2012-02-21 15:45:19 51°11.302 2°43.562 3.4405 2.816367 30.072943 0.08756
2012-02-21 15:46:19 51°11.32 2°43.887 3.4216 2.813886 30.058274 -0.069611
2012-02-21 15:47:19 51°11.352 2°44.208 3.3987 2.812439 30.066689 -0.101045
2012-02-21 15:48:19 51°11.394 2°44.527 3.3743 2.8082 30.036745 -0.101045
2012-02-21 15:49:19 51°11.471 2°44.831 3.3597 2.803858 30.004644 0.056126
2012-02-21 15:50:19 51°11.533 2°45.144 3.3362 2.801377 29.985378 -0.069611
2012-02-21 15:51:19 51°11.59 2°45.46 3.3376 2.798689 29.972754 -0.006743
2012-02-21 15:52:19 51°11.671 2°45.762 3.3134 2.794658 29.947886 -0.101045
2012-02-21 15:53:19 51°11.75 2°46.068 3.2564 2.787214 29.8845 -0.038177
2012-02-21 15:54:19 51°11.84 2°46.365 3.2387 2.779771 29.828303 -0.163914
2012-02-21 15:55:19 51°11.921 2°46.67 3.1996 2.773879 29.793998 -0.195348
2012-02-21 15:56:19 51°11.998 2°46.972 3.1776 2.781323 29.908515 -0.13248
2012-02-21 15:57:19 51°12.071 2°47.277 3.1574 2.782357 29.921676 -0.258217
2012-02-21 15:58:19 51°12.154 2°47.571 3.1301 2.77481 29.875998 -0.101045
2012-02-21 15:59:19 51°12.23 2°47.87 3.1126 2.769848 29.826252 -0.038177
2012-02-21 16:00:19 51°12.324 2°48.154 3.1146 2.765196 29.781991 -0.101045
2012-02-21 16:01:19 51°12.415 2°48.443 3.102 2.762509 29.747377 0.056126
2012-02-21 16:02:19 51°12.514 2°48.725 3.0928 2.758374 29.711953 -0.006743
2012-02-21 16:03:19 51°12.601 2°49.017 3.0853 2.755376 29.683646 0.150429
2012-02-21 16:04:19 51°12.691 2°49.306 3.0962 2.673924 28.723529 -0.163914
2012-02-21 16:05:19 51°12.782 2°49.595 3.1049 2.681159 28.797606 -0.101045
2012-02-21 16:06:19 51°12.892 2°49.863 3.0978 2.660177 28.548026 -0.038177
2012-02-21 16:07:19 51°12.999 2°50.135 3.0753 2.651702 28.454088 -0.069611
2012-02-21 16:08:19 51°13.089 2°50.42 3.078 2.677851 28.780515 -0.006743
2012-02-21 16:09:19 51°13.196 2°50.692 3.0812 2.649842 28.441697 0.024692
2012-02-21 16:10:19 51°13.304 2°50.964 3.0672 2.638474 28.311855 -0.226782
2012-02-21 16:11:19 51°13.394 2°51.256 3.0664 2.646432 28.416211 0.056126
2012-02-21 16:12:19 51°13.489 2°51.542 3.0904 2.647568 28.428768 -0.069611
2012-02-21 16:13:19 51°13.569 2°51.838 3.0858 2.636717 28.281608 0.08756
2012-02-21 16:14:19 51°13.674 2°52.114 3.1017 2.645191 28.383327 -0.006743
2012-02-21 16:14:36 51°15.395 3°1.433 9.9141 0.042916 0.233944 -1.326982
2012-02-21 16:15:29 51°13.8 2°52.429 3.0942 2.618321 28.057005 0.056126
2012-02-21 16:16:30 51°13.902 2°52.714 3.0941 2.645501 28.380043 -0.069611
2012-02-21 16:17:29 51°13.998 2°52.989 3.0943 2.621628 28.102841 -0.069611
2012-02-21 16:18:29 51°14.102 2°53.262 3.1017 2.607469 27.933473 -0.069611
2012-02-21 16:19:29 51°14.216 2°53.528 3.1129 2.626692 28.151343 -0.13248
2012-02-21 16:20:29 51°14.335 2°53.789 3.1683 2.616977 28.020623 -0.069611
2012-02-21 16:21:29 51°14.441 2°54.059 3.1728 2.609019 27.883539 -0.101045
2012-02-21 16:22:29 51°14.542 2°54.327 3.1112 2.571817 27.457776 -0.195348
2012-02-21 16:23:30 51°14.627 2°54.6 3.0813 2.582564 27.636994 -0.006743
2012-02-21 16:24:29 51°14.576 2°54.886 3.1031 2.564274 27.433744 0.181863
2012-02-21 16:25:32 51°14.441 2°55.121 3.0573 2.544537 27.188584 -0.069611
2012-02-21 16:26:33 51°14.312 2°55.252 3.0001 2.536685 27.145393 0.213297
2012-02-21 16:27:33 51°14.202 2°55.353 2.9771 2.502485 26.779895 -0.13248
2012-02-21 16:28:33 51°14.086 2°55.441 3.3907 0.095769 0.819394 -1.16981
2012-02-21 16:29:33 51°13.986 2°55.515 3.4579 0.098648 0.845231 -1.232679
2012-02-21 16:30:33 51°13.901 2°55.576 3.5168 0.089394 0.762072 -1.232679
2012-02-21 16:31:33 51°13.822 2°55.634 3.5826 0.084561 0.716722 -1.232679
2012-02-21 16:32:33 51°13.762 2°55.701 3.7579 0.080756 0.681146 -1.232679
2012-02-21 16:33:33 51°13.728 2°55.772 3.8327 0.079625 0.669763 -1.232679
2012-02-21 16:34:33 51°13.698 2°55.851 3.9697 0.079111 0.664005 -1.232679